sensor_id;sensor_type;location;lat;lon;timestamp;P1;durP1;ratioP1;P2;durP2;ratioP2
48975;SDS011;34791;52.752;8.346;2023-11-25T00:00:11;23.23;;;3.97;;
48975;SDS011;34791;52.752;8.346;2023-11-25T00:02:38;22.20;;;4.10;;
48975;SDS011;34791;52.752;8.346;2023-11-25T00:05:03;18.47;;;4.23;;
48975;SDS011;34791;52.752;8.346;2023-11-25T00:07:29;13.93;;;3.63;;
48975;SDS011;34791;52.752;8.346;2023-11-25T00:09:54;15.47;;;3.43;;
48975;SDS011;34791;52.752;8.346;2023-11-25T00:12:19;20.50;;;3.57;;
48975;SDS011;34791;52.752;8.346;2023-11-25T00:14:45;18.90;;;3.43;;
48975;SDS011;34791;52.752;8.346;2023-11-25T00:17:10;16.70;;;3.53;;
48975;SDS011;34791;52.752;8.346;2023-11-25T00:19:35;20.37;;;3.50;;
48975;SDS011;34791;52.752;8.346;2023-11-25T00:22:00;15.27;;;3.13;;
48975;SDS011;34791;52.752;8.346;2023-11-25T00:24:26;18.07;;;3.40;;
48975;SDS011;34791;52.752;8.346;2023-11-25T00:26:51;19.00;;;3.33;;
48975;SDS011;34791;52.752;8.346;2023-11-25T00:29:17;19.37;;;3.43;;
48975;SDS011;34791;52.752;8.346;2023-11-25T00:31:43;17.53;;;3.10;;
48975;SDS011;34791;52.752;8.346;2023-11-25T00:34:08;20.93;;;3.00;;
48975;SDS011;34791;52.752;8.346;2023-11-25T00:36:33;15.77;;;3.00;;
48975;SDS011;34791;52.752;8.346;2023-11-25T00:38:58;12.90;;;2.93;;
48975;SDS011;34791;52.752;8.346;2023-11-25T00:41:24;20.07;;;3.40;;
48975;SDS011;34791;52.752;8.346;2023-11-25T00:43:50;13.90;;;3.07;;
48975;SDS011;34791;52.752;8.346;2023-11-25T00:46:15;15.67;;;2.77;;
48975;SDS011;34791;52.752;8.346;2023-11-25T00:48:40;14.60;;;3.07;;
48975;SDS011;34791;52.752;8.346;2023-11-25T00:51:08;13.93;;;2.97;;
48975;SDS011;34791;52.752;8.346;2023-11-25T00:53:33;20.03;;;2.93;;
48975;SDS011;34791;52.752;8.346;2023-11-25T00:55:58;17.23;;;2.63;;
48975;SDS011;34791;52.752;8.346;2023-11-25T00:58:24;13.80;;;2.70;;
48975;SDS011;34791;52.752;8.346;2023-11-25T01:00:49;18.73;;;3.33;;
48975;SDS011;34791;52.752;8.346;2023-11-25T01:03:15;23.83;;;3.03;;
48975;SDS011;34791;52.752;8.346;2023-11-25T01:05:41;18.03;;;3.17;;
48975;SDS011;34791;52.752;8.346;2023-11-25T01:08:06;20.33;;;2.83;;
48975;SDS011;34791;52.752;8.346;2023-11-25T01:10:31;16.13;;;2.80;;
48975;SDS011;34791;52.752;8.346;2023-11-25T01:12:56;13.83;;;2.80;;
48975;SDS011;34791;52.752;8.346;2023-11-25T01:15:22;20.40;;;2.57;;
48975;SDS011;34791;52.752;8.346;2023-11-25T01:17:47;17.03;;;2.50;;
48975;SDS011;34791;52.752;8.346;2023-11-25T01:20:12;18.27;;;2.43;;
48975;SDS011;34791;52.752;8.346;2023-11-25T01:22:39;16.90;;;2.87;;
48975;SDS011;34791;52.752;8.346;2023-11-25T01:25:04;21.20;;;2.97;;
48975;SDS011;34791;52.752;8.346;2023-11-25T01:27:31;12.30;;;2.33;;
48975;SDS011;34791;52.752;8.346;2023-11-25T01:29:58;21.70;;;3.57;;
48975;SDS011;34791;52.752;8.346;2023-11-25T01:32:24;20.10;;;2.80;;
48975;SDS011;34791;52.752;8.346;2023-11-25T01:34:50;18.60;;;2.97;;
48975;SDS011;34791;52.752;8.346;2023-11-25T01:37:15;19.30;;;3.47;;
48975;SDS011;34791;52.752;8.346;2023-11-25T01:39:42;19.43;;;3.10;;
48975;SDS011;34791;52.752;8.346;2023-11-25T01:42:08;22.60;;;3.07;;
48975;SDS011;34791;52.752;8.346;2023-11-25T01:44:33;13.23;;;2.90;;
48975;SDS011;34791;52.752;8.346;2023-11-25T01:46:58;16.17;;;2.40;;
48975;SDS011;34791;52.752;8.346;2023-11-25T01:49:23;15.83;;;2.73;;
48975;SDS011;34791;52.752;8.346;2023-11-25T01:51:50;12.77;;;2.53;;
48975;SDS011;34791;52.752;8.346;2023-11-25T01:54:16;16.03;;;2.50;;
48975;SDS011;34791;52.752;8.346;2023-11-25T01:56:42;20.20;;;2.73;;
48975;SDS011;34791;52.752;8.346;2023-11-25T01:59:09;17.27;;;2.20;;
48975;SDS011;34791;52.752;8.346;2023-11-25T02:01:36;13.10;;;2.50;;
48975;SDS011;34791;52.752;8.346;2023-11-25T02:04:02;15.80;;;2.97;;
48975;SDS011;34791;52.752;8.346;2023-11-25T02:06:27;15.07;;;2.40;;
48975;SDS011;34791;52.752;8.346;2023-11-25T02:08:53;17.93;;;2.30;;
48975;SDS011;34791;52.752;8.346;2023-11-25T02:11:18;12.33;;;2.53;;
48975;SDS011;34791;52.752;8.346;2023-11-25T02:13:43;15.40;;;2.83;;
48975;SDS011;34791;52.752;8.346;2023-11-25T02:16:09;14.07;;;2.07;;
48975;SDS011;34791;52.752;8.346;2023-11-25T02:18:36;16.27;;;2.20;;
48975;SDS011;34791;52.752;8.346;2023-11-25T02:21:01;12.07;;;2.50;;
48975;SDS011;34791;52.752;8.346;2023-11-25T02:23:27;17.67;;;2.60;;
48975;SDS011;34791;52.752;8.346;2023-11-25T02:25:52;12.57;;;2.60;;
48975;SDS011;34791;52.752;8.346;2023-11-25T02:28:18;10.73;;;2.20;;
48975;SDS011;34791;52.752;8.346;2023-11-25T02:30:46;10.97;;;2.10;;
48975;SDS011;34791;52.752;8.346;2023-11-25T02:33:15;19.50;;;2.20;;
48975;SDS011;34791;52.752;8.346;2023-11-25T02:35:41;14.77;;;2.33;;
48975;SDS011;34791;52.752;8.346;2023-11-25T02:38:07;17.90;;;2.60;;
48975;SDS011;34791;52.752;8.346;2023-11-25T02:40:33;15.47;;;2.07;;
48975;SDS011;34791;52.752;8.346;2023-11-25T02:42:58;12.97;;;2.23;;
48975;SDS011;34791;52.752;8.346;2023-11-25T02:45:23;8.67;;;2.20;;
48975;SDS011;34791;52.752;8.346;2023-11-25T02:47:49;12.03;;;2.33;;
48975;SDS011;34791;52.752;8.346;2023-11-25T02:50:14;17.43;;;2.43;;
48975;SDS011;34791;52.752;8.346;2023-11-25T02:52:40;13.50;;;2.03;;
48975;SDS011;34791;52.752;8.346;2023-11-25T02:55:06;13.20;;;1.93;;
48975;SDS011;34791;52.752;8.346;2023-11-25T02:57:31;12.07;;;1.70;;
48975;SDS011;34791;52.752;8.346;2023-11-25T02:59:57;12.20;;;2.10;;
48975;SDS011;34791;52.752;8.346;2023-11-25T03:02:24;12.23;;;2.17;;
48975;SDS011;34791;52.752;8.346;2023-11-25T03:04:49;11.63;;;1.67;;
48975;SDS011;34791;52.752;8.346;2023-11-25T03:07:15;17.27;;;2.20;;
48975;SDS011;34791;52.752;8.346;2023-11-25T03:09:40;13.97;;;2.00;;
48975;SDS011;34791;52.752;8.346;2023-11-25T03:12:08;13.43;;;1.97;;
48975;SDS011;34791;52.752;8.346;2023-11-25T03:14:34;13.93;;;2.17;;
48975;SDS011;34791;52.752;8.346;2023-11-25T03:16:59;12.43;;;2.43;;
48975;SDS011;34791;52.752;8.346;2023-11-25T03:19:25;10.53;;;2.50;;
48975;SDS011;34791;52.752;8.346;2023-11-25T03:21:51;14.47;;;1.80;;
48975;SDS011;34791;52.752;8.346;2023-11-25T03:24:17;13.13;;;2.27;;
48975;SDS011;34791;52.752;8.346;2023-11-25T03:26:43;12.40;;;2.20;;
48975;SDS011;34791;52.752;8.346;2023-11-25T03:29:09;16.13;;;2.70;;
48975;SDS011;34791;52.752;8.346;2023-11-25T03:31:40;18.70;;;2.33;;
48975;SDS011;34791;52.752;8.346;2023-11-25T03:34:06;12.05;;;2.47;;
48975;SDS011;34791;52.752;8.346;2023-11-25T03:36:31;13.40;;;2.43;;
48975;SDS011;34791;52.752;8.346;2023-11-25T03:38:57;17.67;;;2.67;;
48975;SDS011;34791;52.752;8.346;2023-11-25T03:41:22;11.20;;;2.03;;
48975;SDS011;34791;52.752;8.346;2023-11-25T03:43:48;17.03;;;2.13;;
48975;SDS011;34791;52.752;8.346;2023-11-25T03:46:13;24.07;;;2.60;;
48975;SDS011;34791;52.752;8.346;2023-11-25T03:48:38;15.37;;;2.17;;
48975;SDS011;34791;52.752;8.346;2023-11-25T03:51:04;18.33;;;2.40;;
48975;SDS011;34791;52.752;8.346;2023-11-25T03:53:30;14.87;;;2.27;;
48975;SDS011;34791;52.752;8.346;2023-11-25T03:55:56;22.37;;;3.00;;
48975;SDS011;34791;52.752;8.346;2023-11-25T03:58:24;11.20;;;2.13;;
48975;SDS011;34791;52.752;8.346;2023-11-25T04:00:50;18.97;;;2.50;;
48975;SDS011;34791;52.752;8.346;2023-11-25T04:03:15;19.30;;;2.43;;
48975;SDS011;34791;52.752;8.346;2023-11-25T04:05:40;19.03;;;2.73;;
48975;SDS011;34791;52.752;8.346;2023-11-25T04:08:06;8.20;;;2.10;;
48975;SDS011;34791;52.752;8.346;2023-11-25T04:10:31;11.77;;;2.03;;
48975;SDS011;34791;52.752;8.346;2023-11-25T04:12:56;15.87;;;2.27;;
48975;SDS011;34791;52.752;8.346;2023-11-25T04:15:22;16.03;;;2.13;;
48975;SDS011;34791;52.752;8.346;2023-11-25T04:17:47;14.93;;;2.33;;
48975;SDS011;34791;52.752;8.346;2023-11-25T04:20:13;18.57;;;2.40;;
48975;SDS011;34791;52.752;8.346;2023-11-25T04:22:47;19.40;;;2.87;;
48975;SDS011;34791;52.752;8.346;2023-11-25T04:25:16;15.90;;;2.30;;
48975;SDS011;34791;52.752;8.346;2023-11-25T04:27:41;18.43;;;2.10;;
48975;SDS011;34791;52.752;8.346;2023-11-25T04:30:08;14.17;;;1.90;;
48975;SDS011;34791;52.752;8.346;2023-11-25T04:32:33;16.37;;;2.97;;
48975;SDS011;34791;52.752;8.346;2023-11-25T04:34:59;21.03;;;2.33;;
48975;SDS011;34791;52.752;8.346;2023-11-25T04:37:24;16.90;;;2.23;;
48975;SDS011;34791;52.752;8.346;2023-11-25T04:39:50;15.50;;;1.90;;
48975;SDS011;34791;52.752;8.346;2023-11-25T04:42:15;23.03;;;2.20;;
48975;SDS011;34791;52.752;8.346;2023-11-25T04:44:41;20.83;;;2.30;;
48975;SDS011;34791;52.752;8.346;2023-11-25T04:47:06;16.37;;;1.90;;
48975;SDS011;34791;52.752;8.346;2023-11-25T04:49:31;21.53;;;2.33;;
48975;SDS011;34791;52.752;8.346;2023-11-25T04:51:57;9.20;;;1.60;;
48975;SDS011;34791;52.752;8.346;2023-11-25T04:54:22;16.93;;;2.10;;
48975;SDS011;34791;52.752;8.346;2023-11-25T04:56:47;11.37;;;1.90;;
48975;SDS011;34791;52.752;8.346;2023-11-25T04:59:13;14.10;;;1.70;;
48975;SDS011;34791;52.752;8.346;2023-11-25T05:01:38;13.33;;;2.33;;
48975;SDS011;34791;52.752;8.346;2023-11-25T05:04:04;11.87;;;1.90;;
48975;SDS011;34791;52.752;8.346;2023-11-25T05:06:30;13.73;;;2.27;;
48975;SDS011;34791;52.752;8.346;2023-11-25T05:08:55;12.03;;;1.90;;
48975;SDS011;34791;52.752;8.346;2023-11-25T05:11:21;11.07;;;1.93;;
48975;SDS011;34791;52.752;8.346;2023-11-25T05:13:46;9.60;;;1.60;;
48975;SDS011;34791;52.752;8.346;2023-11-25T05:16:11;5.80;;;1.50;;
48975;SDS011;34791;52.752;8.346;2023-11-25T05:18:36;13.37;;;1.87;;
48975;SDS011;34791;52.752;8.346;2023-11-25T05:21:02;15.97;;;1.83;;
48975;SDS011;34791;52.752;8.346;2023-11-25T05:23:28;11.97;;;1.47;;
48975;SDS011;34791;52.752;8.346;2023-11-25T05:25:53;20.10;;;2.77;;
48975;SDS011;34791;52.752;8.346;2023-11-25T05:28:19;15.67;;;1.50;;
48975;SDS011;34791;52.752;8.346;2023-11-25T05:30:44;12.83;;;2.10;;
48975;SDS011;34791;52.752;8.346;2023-11-25T05:33:10;24.53;;;2.00;;
48975;SDS011;34791;52.752;8.346;2023-11-25T05:35:35;13.23;;;1.73;;
48975;SDS011;34791;52.752;8.346;2023-11-25T05:38:01;15.47;;;2.53;;
48975;SDS011;34791;52.752;8.346;2023-11-25T05:40:26;13.13;;;1.83;;
48975;SDS011;34791;52.752;8.346;2023-11-25T05:42:55;15.90;;;2.00;;
48975;SDS011;34791;52.752;8.346;2023-11-25T05:45:22;16.90;;;1.80;;
48975;SDS011;34791;52.752;8.346;2023-11-25T05:47:51;11.53;;;1.87;;
48975;SDS011;34791;52.752;8.346;2023-11-25T05:50:17;16.83;;;1.87;;
48975;SDS011;34791;52.752;8.346;2023-11-25T05:52:45;13.40;;;1.60;;
48975;SDS011;34791;52.752;8.346;2023-11-25T05:55:11;11.80;;;1.80;;
48975;SDS011;34791;52.752;8.346;2023-11-25T05:57:37;17.03;;;2.47;;
48975;SDS011;34791;52.752;8.346;2023-11-25T06:00:02;21.50;;;2.37;;
48975;SDS011;34791;52.752;8.346;2023-11-25T06:02:27;13.23;;;2.30;;
48975;SDS011;34791;52.752;8.346;2023-11-25T06:04:53;17.57;;;2.40;;
48975;SDS011;34791;52.752;8.346;2023-11-25T06:07:19;15.43;;;2.20;;
48975;SDS011;34791;52.752;8.346;2023-11-25T06:09:44;12.17;;;1.87;;
48975;SDS011;34791;52.752;8.346;2023-11-25T06:12:09;12.63;;;2.03;;
48975;SDS011;34791;52.752;8.346;2023-11-25T06:14:36;11.83;;;1.60;;
48975;SDS011;34791;52.752;8.346;2023-11-25T06:17:03;13.50;;;1.90;;
48975;SDS011;34791;52.752;8.346;2023-11-25T06:19:29;8.90;;;1.63;;
48975;SDS011;34791;52.752;8.346;2023-11-25T06:21:56;6.87;;;1.30;;
48975;SDS011;34791;52.752;8.346;2023-11-25T06:24:23;12.40;;;1.57;;
48975;SDS011;34791;52.752;8.346;2023-11-25T06:26:49;13.17;;;2.40;;
48975;SDS011;34791;52.752;8.346;2023-11-25T06:29:15;8.33;;;1.43;;
48975;SDS011;34791;52.752;8.346;2023-11-25T06:31:40;11.60;;;1.57;;
48975;SDS011;34791;52.752;8.346;2023-11-25T06:34:09;11.23;;;1.37;;
48975;SDS011;34791;52.752;8.346;2023-11-25T06:36:34;10.83;;;1.40;;
48975;SDS011;34791;52.752;8.346;2023-11-25T06:39:00;13.93;;;2.10;;
48975;SDS011;34791;52.752;8.346;2023-11-25T06:41:25;15.30;;;1.77;;
48975;SDS011;34791;52.752;8.346;2023-11-25T06:43:52;9.83;;;1.27;;
48975;SDS011;34791;52.752;8.346;2023-11-25T06:46:18;15.27;;;1.80;;
48975;SDS011;34791;52.752;8.346;2023-11-25T06:48:43;9.00;;;1.40;;
48975;SDS011;34791;52.752;8.346;2023-11-25T06:51:09;8.87;;;1.70;;
48975;SDS011;34791;52.752;8.346;2023-11-25T06:53:36;4.77;;;1.00;;
48975;SDS011;34791;52.752;8.346;2023-11-25T06:56:02;7.03;;;1.10;;
48975;SDS011;34791;52.752;8.346;2023-11-25T06:58:27;6.33;;;1.57;;
48975;SDS011;34791;52.752;8.346;2023-11-25T07:00:52;6.83;;;0.87;;
48975;SDS011;34791;52.752;8.346;2023-11-25T07:03:18;6.33;;;1.10;;
48975;SDS011;34791;52.752;8.346;2023-11-25T07:05:44;4.63;;;0.93;;
48975;SDS011;34791;52.752;8.346;2023-11-25T07:08:09;6.17;;;1.00;;
48975;SDS011;34791;52.752;8.346;2023-11-25T07:10:35;9.37;;;1.30;;
48975;SDS011;34791;52.752;8.346;2023-11-25T07:13:03;7.93;;;1.30;;
48975;SDS011;34791;52.752;8.346;2023-11-25T07:15:29;8.80;;;1.40;;
48975;SDS011;34791;52.752;8.346;2023-11-25T07:17:55;7.43;;;1.20;;
48975;SDS011;34791;52.752;8.346;2023-11-25T07:20:20;6.03;;;1.50;;
48975;SDS011;34791;52.752;8.346;2023-11-25T07:22:46;8.20;;;1.00;;
48975;SDS011;34791;52.752;8.346;2023-11-25T07:25:12;11.43;;;1.00;;
48975;SDS011;34791;52.752;8.346;2023-11-25T07:27:37;6.53;;;1.33;;
48975;SDS011;34791;52.752;8.346;2023-11-25T07:30:03;8.13;;;1.37;;
48975;SDS011;34791;52.752;8.346;2023-11-25T07:32:30;6.80;;;1.27;;
48975;SDS011;34791;52.752;8.346;2023-11-25T07:34:55;6.53;;;1.10;;
48975;SDS011;34791;52.752;8.346;2023-11-25T07:37:20;10.23;;;1.20;;
48975;SDS011;34791;52.752;8.346;2023-11-25T07:39:47;9.00;;;1.03;;
48975;SDS011;34791;52.752;8.346;2023-11-25T07:42:13;7.90;;;1.43;;
48975;SDS011;34791;52.752;8.346;2023-11-25T07:44:39;6.07;;;0.90;;
48975;SDS011;34791;52.752;8.346;2023-11-25T07:47:04;6.57;;;1.53;;
48975;SDS011;34791;52.752;8.346;2023-11-25T07:49:29;4.67;;;1.30;;
48975;SDS011;34791;52.752;8.346;2023-11-25T07:51:55;10.43;;;1.10;;
48975;SDS011;34791;52.752;8.346;2023-11-25T07:54:20;4.43;;;0.80;;
48975;SDS011;34791;52.752;8.346;2023-11-25T07:56:45;7.07;;;1.10;;
48975;SDS011;34791;52.752;8.346;2023-11-25T07:59:12;4.83;;;1.00;;
48975;SDS011;34791;52.752;8.346;2023-11-25T08:01:38;6.50;;;0.83;;
48975;SDS011;34791;52.752;8.346;2023-11-25T08:04:04;12.10;;;1.30;;
48975;SDS011;34791;52.752;8.346;2023-11-25T08:06:29;3.27;;;1.20;;
48975;SDS011;34791;52.752;8.346;2023-11-25T08:08:55;4.57;;;0.83;;
48975;SDS011;34791;52.752;8.346;2023-11-25T08:11:27;5.57;;;1.10;;
48975;SDS011;34791;52.752;8.346;2023-11-25T08:13:53;5.67;;;1.00;;
48975;SDS011;34791;52.752;8.346;2023-11-25T08:16:19;7.47;;;1.20;;
48975;SDS011;34791;52.752;8.346;2023-11-25T08:18:45;8.73;;;1.40;;
48975;SDS011;34791;52.752;8.346;2023-11-25T08:21:10;10.23;;;1.17;;
48975;SDS011;34791;52.752;8.346;2023-11-25T08:23:36;7.60;;;1.07;;
48975;SDS011;34791;52.752;8.346;2023-11-25T08:26:01;10.13;;;1.30;;
48975;SDS011;34791;52.752;8.346;2023-11-25T08:28:27;8.57;;;1.20;;
48975;SDS011;34791;52.752;8.346;2023-11-25T08:30:52;12.63;;;2.27;;
48975;SDS011;34791;52.752;8.346;2023-11-25T08:33:17;11.10;;;1.80;;
48975;SDS011;34791;52.752;8.346;2023-11-25T08:35:43;11.07;;;2.27;;
48975;SDS011;34791;52.752;8.346;2023-11-25T08:38:09;6.60;;;1.37;;
48975;SDS011;34791;52.752;8.346;2023-11-25T08:40:34;10.20;;;2.03;;
48975;SDS011;34791;52.752;8.346;2023-11-25T08:43:00;12.53;;;1.60;;
48975;SDS011;34791;52.752;8.346;2023-11-25T08:45:33;11.37;;;1.50;;
48975;SDS011;34791;52.752;8.346;2023-11-25T08:47:58;7.13;;;1.20;;
48975;SDS011;34791;52.752;8.346;2023-11-25T08:50:24;8.20;;;1.30;;
48975;SDS011;34791;52.752;8.346;2023-11-25T08:52:49;10.93;;;1.60;;
48975;SDS011;34791;52.752;8.346;2023-11-25T08:55:16;9.00;;;1.20;;
48975;SDS011;34791;52.752;8.346;2023-11-25T08:57:43;11.43;;;1.70;;
48975;SDS011;34791;52.752;8.346;2023-11-25T09:00:08;8.23;;;1.87;;
48975;SDS011;34791;52.752;8.346;2023-11-25T09:05:05;6.27;;;1.60;;
48975;SDS011;34791;52.752;8.346;2023-11-25T09:07:30;10.67;;;1.40;;
48975;SDS011;34791;52.752;8.346;2023-11-25T09:09:56;7.60;;;1.60;;
48975;SDS011;34791;52.752;8.346;2023-11-25T09:12:21;8.87;;;1.33;;
48975;SDS011;34791;52.752;8.346;2023-11-25T09:14:46;10.23;;;1.77;;
48975;SDS011;34791;52.752;8.346;2023-11-25T09:17:13;9.13;;;1.60;;
48975;SDS011;34791;52.752;8.346;2023-11-25T09:19:40;10.67;;;1.80;;
48975;SDS011;34791;52.752;8.346;2023-11-25T09:22:06;13.60;;;1.53;;
48975;SDS011;34791;52.752;8.346;2023-11-25T09:24:31;7.33;;;1.23;;
48975;SDS011;34791;52.752;8.346;2023-11-25T09:26:56;15.03;;;1.70;;
48975;SDS011;34791;52.752;8.346;2023-11-25T09:29:22;9.93;;;1.63;;
48975;SDS011;34791;52.752;8.346;2023-11-25T09:31:47;14.00;;;1.60;;
48975;SDS011;34791;52.752;8.346;2023-11-25T09:34:12;10.67;;;1.30;;
48975;SDS011;34791;52.752;8.346;2023-11-25T09:36:37;8.10;;;1.83;;
48975;SDS011;34791;52.752;8.346;2023-11-25T09:39:03;5.20;;;1.87;;
48975;SDS011;34791;52.752;8.346;2023-11-25T09:41:29;12.17;;;1.40;;
48975;SDS011;34791;52.752;8.346;2023-11-25T09:43:56;2.83;;;1.00;;
48975;SDS011;34791;52.752;8.346;2023-11-25T09:46:21;6.93;;;1.30;;
48975;SDS011;34791;52.752;8.346;2023-11-25T09:48:47;6.27;;;1.00;;
48975;SDS011;34791;52.752;8.346;2023-11-25T09:51:12;4.60;;;1.00;;
48975;SDS011;34791;52.752;8.346;2023-11-25T09:53:39;5.70;;;0.97;;
48975;SDS011;34791;52.752;8.346;2023-11-25T09:56:05;5.30;;;1.73;;
48975;SDS011;34791;52.752;8.346;2023-11-25T09:58:35;4.27;;;0.83;;
48975;SDS011;34791;52.752;8.346;2023-11-25T10:01:00;4.90;;;0.90;;
48975;SDS011;34791;52.752;8.346;2023-11-25T10:03:32;4.60;;;0.73;;
48975;SDS011;34791;52.752;8.346;2023-11-25T10:05:57;6.13;;;0.80;;
48975;SDS011;34791;52.752;8.346;2023-11-25T10:08:23;6.57;;;0.80;;
48975;SDS011;34791;52.752;8.346;2023-11-25T10:11:01;7.10;;;1.00;;
48975;SDS011;34791;52.752;8.346;2023-11-25T10:13:30;4.60;;;0.97;;
48975;SDS011;34791;52.752;8.346;2023-11-25T10:15:55;3.63;;;0.73;;
48975;SDS011;34791;52.752;8.346;2023-11-25T10:18:20;2.83;;;0.50;;
48975;SDS011;34791;52.752;8.346;2023-11-25T10:20:47;2.17;;;0.67;;
48975;SDS011;34791;52.752;8.346;2023-11-25T10:23:20;3.53;;;0.70;;
48975;SDS011;34791;52.752;8.346;2023-11-25T10:25:45;3.42;;;0.57;;
48975;SDS011;34791;52.752;8.346;2023-11-25T10:28:11;3.40;;;0.63;;
48975;SDS011;34791;52.752;8.346;2023-11-25T10:30:39;4.23;;;0.80;;
48975;SDS011;34791;52.752;8.346;2023-11-25T10:33:06;1.47;;;0.50;;
48975;SDS011;34791;52.752;8.346;2023-11-25T10:35:33;4.73;;;0.70;;
48975;SDS011;34791;52.752;8.346;2023-11-25T10:37:59;6.23;;;1.10;;
48975;SDS011;34791;52.752;8.346;2023-11-25T10:40:24;7.40;;;0.83;;
48975;SDS011;34791;52.752;8.346;2023-11-25T10:42:52;8.33;;;0.80;;
48975;SDS011;34791;52.752;8.346;2023-11-25T10:45:19;2.90;;;1.10;;
48975;SDS011;34791;52.752;8.346;2023-11-25T10:47:47;3.83;;;0.83;;
48975;SDS011;34791;52.752;8.346;2023-11-25T10:50:12;6.67;;;1.27;;
48975;SDS011;34791;52.752;8.346;2023-11-25T10:52:41;6.10;;;1.10;;
48975;SDS011;34791;52.752;8.346;2023-11-25T10:55:08;5.93;;;1.03;;
48975;SDS011;34791;52.752;8.346;2023-11-25T10:57:36;7.67;;;1.40;;
48975;SDS011;34791;52.752;8.346;2023-11-25T11:00:02;6.27;;;1.00;;
48975;SDS011;34791;52.752;8.346;2023-11-25T11:02:36;8.00;;;1.57;;
48975;SDS011;34791;52.752;8.346;2023-11-25T11:05:08;9.43;;;2.20;;
48975;SDS011;34791;52.752;8.346;2023-11-25T11:07:34;7.03;;;1.07;;
48975;SDS011;34791;52.752;8.346;2023-11-25T11:10:01;8.30;;;1.17;;
48975;SDS011;34791;52.752;8.346;2023-11-25T11:12:37;6.47;;;1.60;;
48975;SDS011;34791;52.752;8.346;2023-11-25T11:15:03;7.37;;;1.30;;
48975;SDS011;34791;52.752;8.346;2023-11-25T11:20:10;5.83;;;1.13;;
48975;SDS011;34791;52.752;8.346;2023-11-25T11:22:39;9.80;;;1.13;;
48975;SDS011;34791;52.752;8.346;2023-11-25T11:25:15;5.40;;;1.10;;
48975;SDS011;34791;52.752;8.346;2023-11-25T11:27:59;8.73;;;1.13;;
48975;SDS011;34791;52.752;8.346;2023-11-25T11:33:14;13.80;;;1.50;;
48975;SDS011;34791;52.752;8.346;2023-11-25T11:35:40;10.70;;;1.40;;
48975;SDS011;34791;52.752;8.346;2023-11-25T11:40:58;7.60;;;1.20;;
48975;SDS011;34791;52.752;8.346;2023-11-25T11:43:24;7.37;;;1.57;;
48975;SDS011;34791;52.752;8.346;2023-11-25T11:45:56;9.80;;;1.30;;
48975;SDS011;34791;52.752;8.346;2023-11-25T11:48:22;7.90;;;1.67;;
48975;SDS011;34791;52.752;8.346;2023-11-25T11:50:49;8.13;;;1.60;;
48975;SDS011;34791;52.752;8.346;2023-11-25T11:53:16;5.40;;;1.50;;
48975;SDS011;34791;52.752;8.346;2023-11-25T11:58:08;8.80;;;1.70;;
48975;SDS011;34791;52.752;8.346;2023-11-25T12:00:46;9.97;;;1.73;;
48975;SDS011;34791;52.752;8.346;2023-11-25T12:03:13;3.97;;;1.30;;
48975;SDS011;34791;52.752;8.346;2023-11-25T12:05:40;7.07;;;1.93;;
48975;SDS011;34791;52.752;8.346;2023-11-25T12:08:05;12.33;;;2.47;;
48975;SDS011;34791;52.752;8.346;2023-11-25T12:10:31;9.33;;;1.57;;
48975;SDS011;34791;52.752;8.346;2023-11-25T12:12:56;2.97;;;1.00;;
48975;SDS011;34791;52.752;8.346;2023-11-25T12:15:22;5.53;;;1.37;;
48975;SDS011;34791;52.752;8.346;2023-11-25T12:17:47;9.00;;;1.43;;
48975;SDS011;34791;52.752;8.346;2023-11-25T12:20:16;4.60;;;0.90;;
48975;SDS011;34791;52.752;8.346;2023-11-25T12:22:42;4.07;;;0.87;;
48975;SDS011;34791;52.752;8.346;2023-11-25T12:25:07;4.70;;;1.00;;
48975;SDS011;34791;52.752;8.346;2023-11-25T12:27:46;3.87;;;1.10;;
48975;SDS011;34791;52.752;8.346;2023-11-25T12:30:12;11.13;;;1.43;;
48975;SDS011;34791;52.752;8.346;2023-11-25T12:32:37;9.50;;;1.40;;
48975;SDS011;34791;52.752;8.346;2023-11-25T12:35:03;4.00;;;0.90;;
48975;SDS011;34791;52.752;8.346;2023-11-25T12:37:29;4.60;;;0.70;;
48975;SDS011;34791;52.752;8.346;2023-11-25T12:39:55;2.70;;;0.70;;
48975;SDS011;34791;52.752;8.346;2023-11-25T12:42:23;3.60;;;0.80;;
48975;SDS011;34791;52.752;8.346;2023-11-25T12:47:14;3.03;;;0.80;;
48975;SDS011;34791;52.752;8.346;2023-11-25T12:49:40;4.17;;;0.80;;
48975;SDS011;34791;52.752;8.346;2023-11-25T12:52:06;2.63;;;1.07;;
48975;SDS011;34791;52.752;8.346;2023-11-25T12:54:43;3.83;;;0.70;;
48975;SDS011;34791;52.752;8.346;2023-11-25T12:57:09;6.97;;;0.90;;
48975;SDS011;34791;52.752;8.346;2023-11-25T12:59:35;3.33;;;0.60;;
48975;SDS011;34791;52.752;8.346;2023-11-25T13:02:04;3.63;;;0.57;;
48975;SDS011;34791;52.752;8.346;2023-11-25T13:04:29;6.20;;;1.33;;
48975;SDS011;34791;52.752;8.346;2023-11-25T13:06:55;3.60;;;0.73;;
48975;SDS011;34791;52.752;8.346;2023-11-25T13:09:25;3.90;;;0.60;;
48975;SDS011;34791;52.752;8.346;2023-11-25T13:11:53;1.63;;;0.53;;
48975;SDS011;34791;52.752;8.346;2023-11-25T13:14:18;1.70;;;0.57;;
48975;SDS011;34791;52.752;8.346;2023-11-25T13:16:44;5.20;;;0.60;;
48975;SDS011;34791;52.752;8.346;2023-11-25T13:19:09;2.07;;;0.60;;
48975;SDS011;34791;52.752;8.346;2023-11-25T13:21:34;3.90;;;0.80;;
48975;SDS011;34791;52.752;8.346;2023-11-25T13:24:00;5.93;;;0.80;;
48975;SDS011;34791;52.752;8.346;2023-11-25T13:26:25;1.80;;;0.70;;
48975;SDS011;34791;52.752;8.346;2023-11-25T13:28:52;4.33;;;0.80;;
48975;SDS011;34791;52.752;8.346;2023-11-25T13:31:18;3.73;;;0.90;;
48975;SDS011;34791;52.752;8.346;2023-11-25T13:33:43;4.77;;;0.80;;
48975;SDS011;34791;52.752;8.346;2023-11-25T13:36:08;5.00;;;1.00;;
48975;SDS011;34791;52.752;8.346;2023-11-25T13:38:34;3.33;;;0.80;;
48975;SDS011;34791;52.752;8.346;2023-11-25T13:40:59;5.70;;;1.17;;
48975;SDS011;34791;52.752;8.346;2023-11-25T13:43:24;4.53;;;1.00;;
48975;SDS011;34791;52.752;8.346;2023-11-25T13:45:49;3.67;;;0.93;;
48975;SDS011;34791;52.752;8.346;2023-11-25T13:48:15;6.47;;;1.03;;
48975;SDS011;34791;52.752;8.346;2023-11-25T13:50:42;6.80;;;1.27;;
48975;SDS011;34791;52.752;8.346;2023-11-25T13:53:07;6.50;;;1.27;;
48975;SDS011;34791;52.752;8.346;2023-11-25T13:55:33;3.87;;;1.00;;
48975;SDS011;34791;52.752;8.346;2023-11-25T13:58:03;4.37;;;1.10;;
48975;SDS011;34791;52.752;8.346;2023-11-25T14:00:30;6.63;;;1.50;;
48975;SDS011;34791;52.752;8.346;2023-11-25T14:02:56;6.27;;;1.30;;
48975;SDS011;34791;52.752;8.346;2023-11-25T14:05:24;8.47;;;1.23;;
48975;SDS011;34791;52.752;8.346;2023-11-25T14:07:50;6.87;;;1.70;;
48975;SDS011;34791;52.752;8.346;2023-11-25T14:10:16;10.53;;;1.60;;
48975;SDS011;34791;52.752;8.346;2023-11-25T14:12:41;4.63;;;1.90;;
48975;SDS011;34791;52.752;8.346;2023-11-25T14:15:07;6.33;;;2.03;;
48975;SDS011;34791;52.752;8.346;2023-11-25T14:17:36;6.93;;;1.80;;
48975;SDS011;34791;52.752;8.346;2023-11-25T14:20:05;7.63;;;1.50;;
48975;SDS011;34791;52.752;8.346;2023-11-25T14:22:40;8.23;;;1.27;;
48975;SDS011;34791;52.752;8.346;2023-11-25T14:25:05;6.30;;;1.20;;
48975;SDS011;34791;52.752;8.346;2023-11-25T14:27:33;4.27;;;1.07;;
48975;SDS011;34791;52.752;8.346;2023-11-25T14:29:58;7.13;;;1.40;;
48975;SDS011;34791;52.752;8.346;2023-11-25T14:32:24;5.30;;;1.23;;
48975;SDS011;34791;52.752;8.346;2023-11-25T14:34:49;7.13;;;1.20;;
48975;SDS011;34791;52.752;8.346;2023-11-25T14:37:15;3.57;;;0.90;;
48975;SDS011;34791;52.752;8.346;2023-11-25T14:39:41;4.30;;;1.53;;
48975;SDS011;34791;52.752;8.346;2023-11-25T14:42:06;6.97;;;1.20;;
48975;SDS011;34791;52.752;8.346;2023-11-25T14:44:33;10.13;;;1.50;;
48975;SDS011;34791;52.752;8.346;2023-11-25T14:46:59;4.60;;;1.30;;
48975;SDS011;34791;52.752;8.346;2023-11-25T14:49:24;3.27;;;1.10;;